Terminal Aerodrome Forecast
Issued by NWS Kansas City/Pleasant Hill, MO

Home | Current Version | Previous Version | Text Only | Print | Product List | Glossary On
Versions: 1 2 3 4 5 6 7 8 9 10 11 12 13
000
FTUS43 KEAX 150500
TAFMCI
TAF
KMCI 150520Z 1506/1606 16008KT P6SM BKN040
     FM151000 17008KT P6SM VCTS OVC035CB
     FM151300 21009KT P6SM BKN015
     FM151700 35010KT P6SM VCSH BKN025
     FM152200 02007KT P6SM SCT025=

USA.gov is the U.S. government's official web portal to all federal, state and local government web resources and services.